createdAt,value
2022-08-27T00:01:34.174Z,99277.30
2022-08-27T00:04:01.093Z,99278.84
2022-08-27T00:06:27.914Z,99274.65
2022-08-27T00:08:54.674Z,99270.65
2022-08-27T00:11:22.375Z,99274.46
2022-08-27T00:13:49.186Z,99275.52
2022-08-27T00:16:16.365Z,99273.61
2022-08-27T00:18:44.259Z,99273.65
2022-08-27T00:21:15.389Z,99269.75
2022-08-27T00:23:42.309Z,99263.73
2022-08-27T00:26:09.254Z,99262.50
2022-08-27T00:28:36.185Z,99263.64
2022-08-27T00:31:03.091Z,99264.23
2022-08-27T00:33:30.705Z,99269.52
2022-08-27T00:35:57.586Z,99271.58
2022-08-27T00:38:24.455Z,99274.64
2022-08-27T00:40:51.485Z,99278.59
2022-08-27T00:43:45.769Z,99278.70
2022-08-27T00:46:21.331Z,99281.82
2022-08-27T00:48:48.900Z,99278.64
2022-08-27T00:51:15.735Z,99277.33
2022-08-27T00:54:02.630Z,99277.02
2022-08-27T00:56:33.174Z,99276.56
2022-08-27T00:59:01.592Z,99278.70
2022-08-27T01:01:29.950Z,99280.37
2022-08-27T01:04:03.279Z,99278.12
2022-08-27T01:06:32.872Z,99275.21
2022-08-27T01:09:06.076Z,99273.68
2022-08-27T01:11:33.345Z,99271.62
2022-08-27T01:14:01.448Z,99274.35
2022-08-27T01:16:32.041Z,99272.94
2022-08-27T01:18:58.868Z,99276.02
2022-08-27T01:21:28.399Z,99274.51
2022-08-27T01:24:07.474Z,99274.89
2022-08-27T01:26:34.322Z,99276.03
2022-08-27T01:29:01.102Z,99275.87
2022-08-27T01:31:29.412Z,99277.31
2022-08-27T01:33:57.037Z,99272.84
2022-08-27T01:36:24.261Z,99279.05
2022-08-27T01:38:51.085Z,99277.55
2022-08-27T01:41:18.522Z,99280.04
2022-08-27T01:43:47.043Z,99280.77
2022-08-27T01:46:14.096Z,99279.04
2022-08-27T01:48:42.558Z,99280.38
2022-08-27T01:51:10.017Z,99275.36
2022-08-27T01:53:36.886Z,99278.48
2022-08-27T01:56:04.424Z,99278.17
2022-08-27T01:58:32.094Z,99276.80
2022-08-27T02:01:05.490Z,99278.37
2022-08-27T02:03:32.540Z,99277.36
2022-08-27T02:06:00.018Z,99272.84
2022-08-27T02:08:26.890Z,99270.69
2022-08-27T02:10:53.674Z,99271.09
2022-08-27T02:13:20.478Z,99278.02
2022-08-27T02:15:47.495Z,99277.95
2022-08-27T02:18:15.045Z,99275.15
2022-08-27T02:20:43.973Z,99275.72
2022-08-27T02:23:10.831Z,99275.17
2022-08-27T02:25:37.750Z,99270.66
2022-08-27T02:28:05.238Z,99270.52
2022-08-27T02:30:32.323Z,99270.89
2022-08-27T02:33:01.079Z,99270.84
2022-08-27T02:35:28.174Z,99272.92
2022-08-27T02:37:54.943Z,99270.18
2022-08-27T02:40:23.369Z,99270.47
2022-08-27T02:42:50.281Z,99271.29
2022-08-27T02:45:17.431Z,99267.84
2022-08-27T02:47:44.266Z,99264.02
2022-08-27T02:50:11.339Z,99261.95
2022-08-27T02:52:38.166Z,99259.31
2022-08-27T02:55:05.847Z,99264.88
2022-08-27T02:57:36.681Z,99260.42
2022-08-27T03:00:12.244Z,99260.79
2022-08-27T03:02:39.287Z,99259.80
2022-08-27T03:05:07.557Z,99259.63
2022-08-27T03:07:34.430Z,99258.38
2022-08-27T03:10:01.209Z,99255.38
2022-08-27T03:12:28.167Z,99258.30
2022-08-27T03:14:54.994Z,99260.44
2022-08-27T03:17:40.414Z,99257.29
2022-08-27T03:20:08.682Z,99258.77
2022-08-27T03:22:35.502Z,99256.79
2022-08-27T03:25:03.265Z,99261.09
2022-08-27T03:27:30.087Z,99258.86
2022-08-27T03:29:59.659Z,99255.17
2022-08-27T03:32:29.988Z,99252.92
2022-08-27T03:34:58.632Z,99253.51
2022-08-27T03:37:25.775Z,99251.42
2022-08-27T03:39:52.649Z,99253.42
2022-08-27T03:42:19.473Z,99254.63
2022-08-27T03:44:46.306Z,99252.86
2022-08-27T03:47:13.190Z,99254.39
2022-08-27T03:49:40.073Z,99253.52
2022-08-27T03:52:07.002Z,99250.87
2022-08-27T03:54:37.862Z,99249.15
2022-08-27T03:57:05.094Z,99247.79
2022-08-27T03:59:32.040Z,99246.22
2022-08-27T04:01:58.934Z,99242.90
2022-08-27T04:04:25.961Z,99241.86
2022-08-27T04:06:52.807Z,99244.65
2022-08-27T04:09:19.713Z,99244.59
2022-08-27T04:11:46.554Z,99246.09
2022-08-27T04:14:24.887Z,99242.08
2022-08-27T04:16:56.273Z,99244.00
2022-08-27T04:19:27.722Z,99244.98
2022-08-27T04:21:59.101Z,99244.29
2022-08-27T04:24:25.965Z,99243.95
2022-08-27T04:26:52.749Z,99239.87
2022-08-27T04:29:19.571Z,99241.20
2022-08-27T04:31:46.632Z,99239.05
2022-08-27T04:34:13.491Z,99238.36
2022-08-27T04:36:40.301Z,99234.25
2022-08-27T04:39:07.065Z,99232.20
2022-08-27T04:41:34.360Z,99228.85
2022-08-27T04:44:06.351Z,99228.24
2022-08-27T04:46:37.785Z,99226.20
2022-08-27T04:49:10.242Z,99221.44
2022-08-27T04:51:38.043Z,99225.30
2022-08-27T04:54:07.117Z,99226.69
2022-08-27T04:56:34.169Z,99228.85
2022-08-27T04:59:03.695Z,99227.50
2022-08-27T05:01:30.853Z,99225.15
2022-08-27T05:03:58.776Z,99221.30
2022-08-27T05:06:25.660Z,99217.29
2022-08-27T05:08:52.656Z,99213.25
2022-08-27T05:11:20.831Z,99215.35
2022-08-27T05:13:47.719Z,99219.69
2022-08-27T05:16:16.661Z,99222.02
2022-08-27T05:18:48.434Z,99230.08
2022-08-27T05:21:20.618Z,99224.77
2022-08-27T05:23:47.762Z,99227.48
2022-08-27T05:26:15.132Z,99227.63
2022-08-27T05:28:41.964Z,99230.20
2022-08-27T05:31:10.095Z,99229.38
2022-08-27T05:33:38.549Z,99232.69
2022-08-27T05:36:05.837Z,99229.45
2022-08-27T05:38:32.841Z,99231.78
2022-08-27T05:41:09.036Z,99226.78
2022-08-27T05:43:40.166Z,99226.48
2022-08-27T05:46:10.096Z,99227.52
2022-08-27T05:48:36.986Z,99224.36
2022-08-27T05:51:09.358Z,99225.20
2022-08-27T05:53:36.333Z,99228.66
2022-08-27T05:56:03.560Z,99226.73
2022-08-27T05:58:49.271Z,99228.03
2022-08-27T06:01:17.450Z,99224.34
2022-08-27T06:03:46.315Z,99224.02
2022-08-27T06:06:13.134Z,99223.36
2022-08-27T06:08:40.041Z,99221.98
2022-08-27T06:11:07.232Z,99222.02
2022-08-27T06:13:34.474Z,99220.00
2022-08-27T06:16:08.308Z,99223.78
2022-08-27T06:18:35.806Z,99227.66
2022-08-27T06:21:02.822Z,99225.41
2022-08-27T06:23:29.647Z,99230.21
2022-08-27T06:25:57.229Z,99229.82
2022-08-27T06:28:25.229Z,99230.52
2022-08-27T06:30:52.037Z,99226.90
2022-08-27T06:33:21.254Z,99226.90
2022-08-27T06:35:48.065Z,99227.36
2022-08-27T06:38:14.874Z,99222.70
2022-08-27T06:40:42.198Z,99232.96
2022-08-27T06:43:09.081Z,99229.67
2022-08-27T06:45:39.637Z,99227.74
2022-08-27T06:48:06.426Z,99225.61
2022-08-27T06:50:42.472Z,99228.05
2022-08-27T06:53:09.267Z,99229.42
2022-08-27T06:55:43.223Z,99224.70
2022-08-27T06:58:10.368Z,99227.02
2022-08-27T07:00:37.203Z,99223.89
2022-08-27T07:03:05.608Z,99225.18
2022-08-27T07:05:33.653Z,99227.23
2022-08-27T07:08:00.704Z,99225.64
2022-08-27T07:10:27.811Z,99222.93
2022-08-27T07:12:54.753Z,99219.67
2022-08-27T07:15:24.836Z,99220.55
2022-08-27T07:17:53.988Z,99210.36
2022-08-27T07:20:21.369Z,99207.64
2022-08-27T07:22:50.354Z,99204.74
2022-08-27T07:25:21.488Z,99204.28
2022-08-27T07:27:48.600Z,99195.60
2022-08-27T07:30:16.122Z,99198.54
2022-08-27T07:32:46.228Z,99199.94
2022-08-27T07:35:13.213Z,99196.74
2022-08-27T07:37:40.607Z,99199.27
2022-08-27T07:40:13.034Z,99195.98
2022-08-27T07:43:00.034Z,99194.27
2022-08-27T07:45:27.438Z,99196.18
2022-08-27T07:47:54.419Z,99191.96
2022-08-27T07:50:21.671Z,99192.10
2022-08-27T07:52:50.606Z,99195.77
2022-08-27T07:55:17.692Z,99196.80
2022-08-27T07:57:45.554Z,99200.59
2022-08-27T08:00:13.179Z,99202.60
2022-08-27T08:02:42.111Z,99200.86
2022-08-27T08:05:10.178Z,99199.11
2022-08-27T08:07:38.596Z,99198.83
2022-08-27T08:10:06.984Z,99194.98
2022-08-27T08:12:38.221Z,99188.98
2022-08-27T08:15:06.615Z,99187.39
2022-08-27T08:17:36.925Z,99188.14
2022-08-27T08:20:31.256Z,99183.82
2022-08-27T08:22:51.386Z,99179.09
2022-08-27T08:25:18.343Z,99183.91
2022-08-27T08:27:45.250Z,99177.52
2022-08-27T08:30:12.263Z,99175.64
2022-08-27T08:32:39.120Z,99173.20
2022-08-27T08:35:06.506Z,99171.59
2022-08-27T08:37:33.397Z,99170.35
2022-08-27T08:40:00.311Z,99171.89
2022-08-27T08:42:37.379Z,99170.73
2022-08-27T08:45:05.140Z,99171.33
2022-08-27T08:47:39.013Z,99165.27
2022-08-27T08:50:09.990Z,99164.36
2022-08-27T08:53:10.938Z,99165.84
2022-08-27T08:55:47.781Z,99171.27
2022-08-27T08:58:27.387Z,99168.25
2022-08-27T09:01:01.664Z,99167.21
2022-08-27T09:03:28.801Z,99168.66
2022-08-27T09:06:04.268Z,99166.23
2022-08-27T09:08:41.082Z,99169.46
2022-08-27T09:11:33.855Z,99162.95
2022-08-27T09:14:13.213Z,99166.02
2022-08-27T09:16:40.596Z,99157.90
2022-08-27T09:19:07.514Z,99152.34
2022-08-27T09:21:42.937Z,99152.55
2022-08-27T09:24:35.533Z,99153.00
2022-08-27T09:27:02.411Z,99156.50
2022-08-27T09:29:29.572Z,99158.14
2022-08-27T09:32:06.845Z,99153.02
2022-08-27T09:34:36.024Z,99150.33
2022-08-27T09:37:15.781Z,99151.47
2022-08-27T09:39:48.755Z,99148.89
2022-08-27T09:42:35.610Z,99151.23
2022-08-27T09:45:02.478Z,99153.11
2022-08-27T09:47:29.389Z,99156.00
2022-08-27T09:50:07.369Z,99151.97
2022-08-27T09:52:55.670Z,99153.79
2022-08-27T09:55:43.686Z,99150.83
2022-08-27T09:58:28.767Z,99149.42
2022-08-27T10:01:06.842Z,99149.13
2022-08-27T10:03:33.828Z,99149.55
2022-08-27T10:06:00.967Z,99145.97
2022-08-27T10:08:42.317Z,99142.73
2022-08-27T10:11:26.155Z,99146.80
2022-08-27T10:13:57.444Z,99142.96
2022-08-27T10:16:33.617Z,99148.11
2022-08-27T10:19:36.061Z,99146.05
2022-08-27T10:22:31.965Z,99145.15
2022-08-27T10:25:19.765Z,99144.11
2022-08-27T10:28:17.198Z,99148.45
2022-08-27T10:32:05.477Z,99149.11
2022-08-27T10:34:35.058Z,99148.11
2022-08-27T10:37:23.580Z,99143.65
2022-08-27T10:40:02.820Z,99140.42
2022-08-27T10:42:34.572Z,99143.77
2022-08-27T10:45:56.161Z,99145.88
2022-08-27T10:48:31.128Z,99150.95
2022-08-27T10:51:08.688Z,99155.05
2022-08-27T10:53:44.549Z,99156.00
2022-08-27T10:56:31.248Z,99157.16
2022-08-27T10:59:13.447Z,99164.13
2022-08-27T11:01:46.794Z,99159.50
2022-08-27T11:04:20.585Z,99156.85
2022-08-27T11:07:03.193Z,99156.94
2022-08-27T11:09:37.257Z,99161.83
2022-08-27T11:12:15.264Z,99158.92
2022-08-27T11:15:00.541Z,99162.01
2022-08-27T11:17:56.492Z,99156.05
2022-08-27T11:20:32.416Z,99153.24
2022-08-27T11:23:06.040Z,99153.25
2022-08-27T11:25:53.048Z,99153.89
2022-08-27T11:28:30.196Z,99148.95
2022-08-27T11:31:06.276Z,99148.90
2022-08-27T11:33:57.573Z,99140.85
2022-08-27T11:36:25.158Z,99141.61
2022-08-27T11:39:36.895Z,99144.38
2022-08-27T11:42:16.186Z,99140.27
2022-08-27T11:44:44.256Z,99136.20
2022-08-27T11:47:13.076Z,99132.38
2022-08-27T11:50:01.308Z,99132.42
2022-08-27T11:52:29.357Z,99135.27
2022-08-27T11:55:08.930Z,99130.11
2022-08-27T11:57:38.624Z,99124.27
2022-08-27T12:00:17.672Z,99126.45
2022-08-27T12:02:44.720Z,99124.35
2022-08-27T12:05:33.209Z,99122.48
2022-08-27T12:08:01.129Z,99119.73
2022-08-27T12:10:49.481Z,99116.61
2022-08-27T12:13:38.640Z,99116.65
2022-08-27T12:16:40.882Z,99113.34
2022-08-27T12:19:18.691Z,99111.13
2022-08-27T12:22:03.930Z,99109.02
2022-08-27T12:24:41.538Z,99107.50
2022-08-27T12:27:26.569Z,99102.23
2022-08-27T12:29:54.220Z,99099.80
2022-08-27T12:32:30.399Z,99100.30
2022-08-27T12:34:59.669Z,99101.91
2022-08-27T12:37:29.136Z,99096.54
2022-08-27T12:39:58.928Z,99095.02
2022-08-27T12:42:25.821Z,99084.80
2022-08-27T12:44:56.515Z,99081.97
2022-08-27T12:47:23.443Z,99079.98
2022-08-27T12:49:58.035Z,99079.42
2022-08-27T12:53:02.204Z,99079.49
2022-08-27T12:55:50.731Z,99072.48
2022-08-27T12:58:30.150Z,99076.48
2022-08-27T13:01:34.439Z,99078.12
2022-08-27T13:04:05.454Z,99075.69
2022-08-27T13:06:34.757Z,99077.71
2022-08-27T13:09:06.623Z,99073.73
2022-08-27T13:11:56.774Z,99076.15
2022-08-27T13:14:24.904Z,99074.56
2022-08-27T13:16:59.323Z,99075.69
2022-08-27T13:19:32.927Z,99075.06
2022-08-27T13:22:01.559Z,99070.52
2022-08-27T13:24:33.984Z,99069.16
2022-08-27T13:27:02.834Z,99068.85
2022-08-27T13:29:29.737Z,99068.13
2022-08-27T13:31:56.585Z,99071.90
2022-08-27T13:34:25.695Z,99077.05
2022-08-27T13:37:02.478Z,99073.59
2022-08-27T13:39:29.279Z,99075.25
2022-08-27T13:41:58.823Z,99081.02
2022-08-27T13:44:32.242Z,99075.45
2022-08-27T13:47:07.357Z,99072.87
2022-08-27T13:49:36.721Z,99075.05
2022-08-27T13:52:09.860Z,99073.44
2022-08-27T13:54:36.672Z,99073.77
2022-08-27T13:57:08.483Z,99076.64
2022-08-27T13:59:41.619Z,99076.39
2022-08-27T14:02:10.030Z,99075.33
2022-08-27T14:04:40.033Z,99074.58
2022-08-27T14:07:13.743Z,99075.68
2022-08-27T14:09:55.192Z,99080.24
2022-08-27T14:12:32.893Z,99087.90
2022-08-27T14:15:25.806Z,99084.66
2022-08-27T14:17:52.598Z,99088.89
2022-08-27T14:20:19.759Z,99092.40
2022-08-27T14:22:47.206Z,99095.36
2022-08-27T14:25:14.804Z,99095.23
2022-08-27T14:27:41.976Z,99096.23
2022-08-27T14:30:20.545Z,99091.21
2022-08-27T14:32:55.666Z,99093.16
2022-08-27T14:35:31.089Z,99089.66
2022-08-27T14:37:58.581Z,99085.33
2022-08-27T14:40:25.513Z,99089.86
2022-08-27T14:42:53.189Z,99089.89
2022-08-27T14:45:20.888Z,99091.79
2022-08-27T14:47:47.689Z,99095.05
2022-08-27T14:50:14.474Z,99092.62
2022-08-27T14:52:41.339Z,99089.64
2022-08-27T14:55:10.833Z,99093.85
2022-08-27T14:57:38.299Z,99089.55
2022-08-27T15:00:06.269Z,99092.91
2022-08-27T15:02:33.043Z,99090.48
2022-08-27T15:05:00.273Z,99090.17
2022-08-27T15:07:27.195Z,99089.42
2022-08-27T15:09:56.432Z,99088.51
2022-08-27T15:12:26.324Z,99089.65
2022-08-27T15:14:53.670Z,99088.43
2022-08-27T15:17:35.195Z,99088.70
2022-08-27T15:20:04.955Z,99087.83
2022-08-27T15:22:33.895Z,99087.39
2022-08-27T15:25:00.722Z,99087.98
2022-08-27T15:27:38.445Z,99093.50
2022-08-27T15:30:07.148Z,99094.27
2022-08-27T15:32:35.890Z,99093.73
2022-08-27T15:35:05.270Z,99094.88
2022-08-27T15:37:32.103Z,99092.02
2022-08-27T15:39:59.026Z,99093.66
2022-08-27T15:42:25.982Z,99089.99
2022-08-27T15:44:53.994Z,99095.92
2022-08-27T15:47:21.197Z,99100.65
2022-08-27T15:49:48.009Z,99105.27
2022-08-27T15:52:16.779Z,99106.23
2022-08-27T15:54:48.502Z,99106.66
2022-08-27T15:57:15.307Z,99107.63
2022-08-27T15:59:42.055Z,99107.29
2022-08-27T16:02:16.419Z,99107.30
2022-08-27T16:04:43.548Z,99109.25
2022-08-27T16:07:16.201Z,99107.70
2022-08-27T16:09:47.096Z,99105.77
2022-08-27T16:12:26.767Z,99103.38
2022-08-27T16:14:55.495Z,99104.37
2022-08-27T16:17:23.094Z,99105.84
2022-08-27T16:19:49.830Z,99100.83
2022-08-27T16:22:16.627Z,99104.48
2022-08-27T16:24:43.622Z,99100.91
2022-08-27T16:27:10.685Z,99100.02
2022-08-27T16:29:37.619Z,99103.04
2022-08-27T16:32:04.425Z,99104.09
2022-08-27T16:34:32.307Z,99106.46
2022-08-27T16:37:00.212Z,99107.78
2022-08-27T16:39:31.753Z,99110.87
2022-08-27T16:42:00.008Z,99110.84
2022-08-27T16:44:26.816Z,99112.36
2022-08-27T16:46:53.618Z,99118.27
2022-08-27T16:49:55.923Z,99122.23
2022-08-27T16:52:23.588Z,99117.17
2022-08-27T16:54:51.420Z,99116.49
2022-08-27T16:57:18.260Z,99119.72
2022-08-27T16:59:45.433Z,99121.76
2022-08-27T17:02:18.806Z,99125.16
2022-08-27T17:04:49.297Z,99124.65
2022-08-27T17:07:28.111Z,99123.18
2022-08-27T17:09:55.767Z,99123.23
2022-08-27T17:12:25.272Z,99122.09
2022-08-27T17:14:52.876Z,99123.34
2022-08-27T17:17:19.639Z,99124.70
2022-08-27T17:19:46.441Z,99127.73
2022-08-27T17:22:14.055Z,99127.21
2022-08-27T17:24:40.790Z,99127.60
2022-08-27T17:27:07.584Z,99125.59
2022-08-27T17:29:34.498Z,99125.36
2022-08-27T17:32:01.257Z,99123.81
2022-08-27T17:34:28.729Z,99122.36
2022-08-27T17:36:55.533Z,99125.45
2022-08-27T17:39:22.615Z,99126.38
2022-08-27T17:41:50.411Z,99132.52
2022-08-27T17:44:24.321Z,99132.01
2022-08-27T17:46:52.045Z,99133.48
2022-08-27T17:49:18.999Z,99136.38
2022-08-27T17:51:46.103Z,99138.41
2022-08-27T17:54:41.255Z,99138.12
2022-08-27T17:57:18.527Z,99143.42
2022-08-27T17:59:45.522Z,99142.35
2022-08-27T18:02:16.581Z,99140.25
2022-08-27T18:04:43.368Z,99142.58
2022-08-27T18:07:10.145Z,99142.45
2022-08-27T18:09:36.979Z,99142.58
2022-08-27T18:12:05.110Z,99142.89
2022-08-27T18:14:31.853Z,99142.94
2022-08-27T18:16:58.695Z,99142.83
2022-08-27T18:19:26.659Z,99144.37
2022-08-27T18:21:53.632Z,99139.90
2022-08-27T18:24:20.411Z,99142.42
2022-08-27T18:26:47.646Z,99143.00
2022-08-27T18:29:14.463Z,99140.95
2022-08-27T18:31:41.356Z,99141.23
2022-08-27T18:34:08.086Z,99141.13
2022-08-27T18:36:34.804Z,99142.27
2022-08-27T18:39:02.122Z,99142.62
2022-08-27T18:41:29.876Z,99147.91
2022-08-27T18:43:56.946Z,99147.41
2022-08-27T18:46:23.702Z,99143.98
2022-08-27T18:48:50.503Z,99145.92
2022-08-27T18:51:19.661Z,99146.00
2022-08-27T18:53:47.137Z,99148.73
2022-08-27T18:56:16.604Z,99148.38
2022-08-27T18:58:43.704Z,99149.80
2022-08-27T19:01:28.999Z,99152.78
2022-08-27T19:03:55.931Z,99149.19
2022-08-27T19:06:23.286Z,99149.82
2022-08-27T19:08:50.275Z,99151.05
2022-08-27T19:11:17.123Z,99145.23
2022-08-27T19:13:43.963Z,99143.81
2022-08-27T19:16:46.847Z,99138.46
2022-08-27T19:19:14.400Z,99141.09
2022-08-27T19:21:41.389Z,99136.36
2022-08-27T19:24:08.524Z,99133.75
2022-08-27T19:26:35.474Z,99134.09
2022-08-27T19:29:02.289Z,99134.55
2022-08-27T19:31:29.579Z,99129.87
2022-08-27T19:33:56.496Z,99131.81
2022-08-27T19:36:23.561Z,99131.58
2022-08-27T19:38:53.920Z,99130.77
2022-08-27T19:41:24.778Z,99130.25
2022-08-27T19:43:54.300Z,99131.63
2022-08-27T19:46:21.663Z,99129.70
2022-08-27T19:48:48.528Z,99128.25
2022-08-27T19:51:15.303Z,99132.11
2022-08-27T19:53:42.223Z,99130.86
2022-08-27T19:56:09.250Z,99128.42
2022-08-27T19:58:36.220Z,99128.51
2022-08-27T20:01:03.170Z,99131.44
2022-08-27T20:03:29.971Z,99131.80
2022-08-27T20:05:56.722Z,99128.90
2022-08-27T20:08:23.479Z,99128.11
2022-08-27T20:10:50.316Z,99127.91
2022-08-27T20:13:17.071Z,99130.02
2022-08-27T20:15:43.917Z,99128.98
2022-08-27T20:18:13.513Z,99127.75
2022-08-27T20:20:40.434Z,99119.91
2022-08-27T20:23:07.487Z,99120.45
2022-08-27T20:25:34.422Z,99117.63
2022-08-27T20:28:12.458Z,99122.34
2022-08-27T20:30:48.722Z,99123.27
2022-08-27T20:33:16.758Z,99126.17
2022-08-27T20:35:44.039Z,99126.39
2022-08-27T20:38:10.931Z,99123.27
2022-08-27T20:40:37.842Z,99123.55
2022-08-27T20:43:04.694Z,99121.52
2022-08-27T20:45:31.585Z,99121.76
2022-08-27T20:47:59.160Z,99126.99
2022-08-27T20:50:25.969Z,99124.30
2022-08-27T20:52:52.798Z,99126.13
2022-08-27T20:55:26.322Z,99123.46
2022-08-27T20:58:11.800Z,99123.31
2022-08-27T21:00:42.491Z,99126.81
2022-08-27T21:03:09.957Z,99121.27
2022-08-27T21:05:55.505Z,99126.60
2022-08-27T21:08:22.982Z,99124.15
2022-08-27T21:10:51.644Z,99123.60
2022-08-27T21:13:18.740Z,99117.52
2022-08-27T21:15:45.539Z,99119.22
2022-08-27T21:18:12.942Z,99124.28
2022-08-27T21:20:39.890Z,99123.14
2022-08-27T21:23:06.692Z,99119.52
2022-08-27T21:25:35.119Z,99126.57
2022-08-27T21:28:03.706Z,99122.20
2022-08-27T21:30:30.688Z,99121.89
2022-08-27T21:32:57.502Z,99117.45
2022-08-27T21:35:27.379Z,99114.73
2022-08-27T21:37:54.915Z,99116.17
2022-08-27T21:40:21.771Z,99113.81
2022-08-27T21:42:49.281Z,99115.11
2022-08-27T21:45:16.088Z,99109.89
2022-08-27T21:47:47.087Z,99109.70
2022-08-27T21:50:13.859Z,99107.88
2022-08-27T21:52:40.590Z,99110.44
2022-08-27T21:55:07.770Z,99108.33
2022-08-27T21:57:34.639Z,99106.84
2022-08-27T22:00:08.129Z,99109.52
2022-08-27T22:02:40.673Z,99109.45
2022-08-27T22:05:08.851Z,99108.73
2022-08-27T22:07:35.798Z,99105.58
2022-08-27T22:10:02.638Z,99104.54
2022-08-27T22:12:29.374Z,99102.55
2022-08-27T22:14:56.153Z,99102.39
2022-08-27T22:17:22.951Z,99100.80
2022-08-27T22:19:49.710Z,99102.42
2022-08-27T22:22:16.465Z,99100.03
2022-08-27T22:24:43.189Z,99099.20
2022-08-27T22:27:10.035Z,99094.84
2022-08-27T22:29:36.790Z,99094.67
2022-08-27T22:32:03.990Z,99091.73
2022-08-27T22:34:30.745Z,99095.85
2022-08-27T22:36:57.476Z,99100.27
2022-08-27T22:39:24.240Z,99103.46
2022-08-27T22:41:52.006Z,99107.20
2022-08-27T22:44:19.101Z,99109.80
2022-08-27T22:48:53.360Z,99113.35
2022-08-27T22:51:20.521Z,99114.34
2022-08-27T22:53:47.321Z,99110.20
2022-08-27T22:56:14.309Z,99111.12
2022-08-27T22:58:45.895Z,99112.00
2022-08-27T23:01:18.029Z,99112.91
2022-08-27T23:03:44.926Z,99107.54
2022-08-27T23:06:11.923Z,99106.04
2022-08-27T23:08:38.715Z,99104.67
2022-08-27T23:11:05.638Z,99106.42
2022-08-27T23:13:32.657Z,99104.92
2022-08-27T23:16:00.361Z,99106.32
2022-08-27T23:18:27.371Z,99102.61
2022-08-27T23:20:54.159Z,99097.49
2022-08-27T23:23:21.074Z,99102.73
2022-08-27T23:26:06.501Z,99100.95
2022-08-27T23:28:33.207Z,99104.73
2022-08-27T23:31:00.028Z,99106.09
2022-08-27T23:33:26.770Z,99114.08
2022-08-27T23:35:53.556Z,99115.70
2022-08-27T23:38:20.792Z,99116.36
2022-08-27T23:40:48.237Z,99116.46
2022-08-27T23:43:15.179Z,99119.05
2022-08-27T23:45:43.215Z,99119.39
2022-08-27T23:48:10.720Z,99110.96
2022-08-27T23:50:37.778Z,99107.39
2022-08-27T23:53:05.112Z,99103.74
2022-08-27T23:55:33.487Z,99101.92
2022-08-27T23:58:01.412Z,99099.90
